Terminal Aerodrome Forecast
Issued by NWS

Home | Current Version | Previous Version | Text Only | Print | Product List | Glossary On
Versions: 1 2 3 4 5 6 7 8 9 10 11 12 13 14 15 16 17 18 19 20 21 22 23 24 25 26 27 28 29 30 31 32 33 34 35 36 37 38 39
000
FTUS46 KLOX 211736
TAFLAX
TAF
KLAX 211736Z 2118/2224 09006KT P6SM FEW045 SCT140
     FM212000 26012KT P6SM FEW035 SCT150
     FM220300 26006KT P6SM SCT150 BKN200
     FM220400 VRB03KT P6SM BKN200
     FM221400 09006KT P6SM SKC
     FM221900 24012KT P6SM SKC
     FM222200 26018G24KT P6SM SKC=

USA.gov is the U.S. government's official web portal to all federal, state and local government web resources and services.